Aviation Digital Data Service (ADDS)

Output produced by METARs form (1827 UTC 16 August 2018)
found at http://www.aviationweather.gov/adds/metars/
 
VGEG 161700Z 18008KT 5000 FEW018 SCT120 28/25 Q1002 NOSIG
TAF VGEG 161700Z 1618/1724 19008KT 4500 HZ SCT016 SCT110 
     BECMG 1622/1624 11005KT 3500 HZ SCT015 BKN100 
     BECMG 1702/1704 20010KT 5000 HZ SCT018 SCT120 
     TEMPO 1706/1714 16020G30KT 2000 -RA/TSRA SCT007 FEW028CB BKN090